createdAt,value
2017-11-28T00:00:54.181Z,20.11
2017-11-28T00:01:54.169Z,20.02
2017-11-28T00:02:54.154Z,20.11
2017-11-28T00:03:54.141Z,20.14
2017-11-28T00:04:54.127Z,20.00
2017-11-28T00:05:54.112Z,20.00
2017-11-28T00:06:54.098Z,20.09
2017-11-28T00:07:54.083Z,20.03
2017-11-28T00:08:54.070Z,19.96
2017-11-28T00:09:54.056Z,20.03
2017-11-28T00:10:54.040Z,20.06
2017-11-28T00:11:54.027Z,20.03
2017-11-28T00:12:54.013Z,19.96
2017-11-28T00:13:54.003Z,19.96
2017-11-28T00:14:53.989Z,19.92
2017-11-28T00:15:53.971Z,19.92
2017-11-28T00:16:53.958Z,19.96
2017-11-28T00:17:53.946Z,20.04
2017-11-28T00:18:53.928Z,19.92
2017-11-28T00:19:53.919Z,19.91
2017-11-28T00:20:53.902Z,19.92
2017-11-28T00:21:53.888Z,19.95
2017-11-28T00:22:53.873Z,19.91
2017-11-28T00:23:53.859Z,19.91
2017-11-28T00:24:53.845Z,19.89
2017-11-28T00:25:53.832Z,19.85
2017-11-28T00:26:53.817Z,19.84
2017-11-28T00:27:53.802Z,19.86
2017-11-28T00:28:53.789Z,19.82
2017-11-28T00:29:53.778Z,19.77
2017-11-28T00:30:53.761Z,19.84
2017-11-28T00:31:53.746Z,19.88
2017-11-28T00:32:53.733Z,19.82
2017-11-28T00:33:53.718Z,19.82
2017-11-28T00:34:53.704Z,19.79
2017-11-28T00:35:53.688Z,19.81
2017-11-28T00:36:53.679Z,19.92
2017-11-28T00:37:53.662Z,19.73
2017-11-28T00:38:53.645Z,19.81
2017-11-28T00:39:53.633Z,19.70
2017-11-28T00:40:53.623Z,19.71
2017-11-28T00:41:53.605Z,19.79
2017-11-28T00:42:53.588Z,19.73
2017-11-28T00:43:53.576Z,19.71
2017-11-28T00:44:53.562Z,19.66
2017-11-28T00:45:53.548Z,19.76
2017-11-28T00:46:53.533Z,19.73
2017-11-28T00:47:53.519Z,19.74
2017-11-28T00:48:53.504Z,19.69
2017-11-28T00:49:53.491Z,19.63
2017-11-28T00:50:53.476Z,19.69
2017-11-28T00:51:53.460Z,19.58
2017-11-28T00:52:53.447Z,19.52
2017-11-28T00:53:53.432Z,19.52
2017-11-28T00:54:53.418Z,19.58
2017-11-28T00:55:53.406Z,19.56
2017-11-28T00:56:53.390Z,19.55
2017-11-28T00:57:53.375Z,19.58
2017-11-28T00:58:53.360Z,19.54
2017-11-28T00:59:53.346Z,19.56
2017-11-28T01:00:53.333Z,19.51
2017-11-28T01:01:53.318Z,19.49
2017-11-28T01:02:53.302Z,19.37
2017-11-28T01:03:53.291Z,19.47
2017-11-28T01:04:53.275Z,19.47
2017-11-28T01:05:53.260Z,19.48
2017-11-28T01:06:53.245Z,19.39
2017-11-28T01:07:53.231Z,19.34
2017-11-28T01:08:53.217Z,19.39
2017-11-28T01:09:53.204Z,19.33
2017-11-28T01:10:53.190Z,19.29
2017-11-28T01:11:53.174Z,19.30
2017-11-28T01:12:53.158Z,19.33
2017-11-28T01:13:53.145Z,19.26
2017-11-28T01:14:53.129Z,19.29
2017-11-28T01:15:53.122Z,19.29
2017-11-28T01:16:53.100Z,19.27
2017-11-28T01:17:53.086Z,19.27
2017-11-28T01:18:53.072Z,19.24
2017-11-28T01:19:53.058Z,19.21
2017-11-28T01:20:53.043Z,19.18
2017-11-28T01:21:53.030Z,19.15
2017-11-28T01:22:53.014Z,19.16
2017-11-28T01:23:52.999Z,19.19
2017-11-28T01:24:52.985Z,19.16
2017-11-28T01:25:52.972Z,19.16
2017-11-28T01:26:52.956Z,19.21
2017-11-28T01:27:52.948Z,19.16
2017-11-28T01:28:52.928Z,19.15
2017-11-28T01:29:52.913Z,19.21
2017-11-28T01:30:52.897Z,19.19
2017-11-28T01:31:52.885Z,19.16
2017-11-28T01:32:52.869Z,19.21
2017-11-28T01:33:52.855Z,19.19
2017-11-28T01:34:52.842Z,19.16
2017-11-28T01:35:52.825Z,19.19
2017-11-28T01:36:52.810Z,19.19
2017-11-28T01:37:52.797Z,19.16
2017-11-28T01:38:52.783Z,19.16
2017-11-28T01:39:52.767Z,19.16
2017-11-28T01:40:52.755Z,19.21
2017-11-28T01:41:52.739Z,19.19
2017-11-28T01:42:52.727Z,19.18
2017-11-28T01:43:52.709Z,19.18
2017-11-28T01:44:52.695Z,19.15
2017-11-28T01:45:52.680Z,19.12
2017-11-28T01:46:52.665Z,19.15
2017-11-28T01:47:52.650Z,19.15
2017-11-28T01:48:52.637Z,19.14
2017-11-28T01:49:52.622Z,19.09
2017-11-28T01:50:52.607Z,19.09
2017-11-28T01:51:52.592Z,19.18
2017-11-28T01:52:52.578Z,19.12
2017-11-28T01:53:52.564Z,19.07
2017-11-28T01:54:52.549Z,19.11
2017-11-28T01:55:52.532Z,19.09
2017-11-28T01:56:52.519Z,19.02
2017-11-28T01:57:52.504Z,19.08
2017-11-28T01:58:52.489Z,19.12
2017-11-28T01:59:52.475Z,19.12
2017-11-28T02:00:52.460Z,19.19
2017-11-28T02:01:52.447Z,19.07
2017-11-28T02:02:52.433Z,19.08
2017-11-28T02:03:52.417Z,19.00
2017-11-28T02:04:52.403Z,19.09
2017-11-28T02:05:52.388Z,19.00
2017-11-28T02:06:52.372Z,19.04
2017-11-28T02:07:52.359Z,19.07
2017-11-28T02:08:52.345Z,19.00
2017-11-28T02:09:52.330Z,19.00
2017-11-28T02:10:52.315Z,18.98
2017-11-28T02:11:52.300Z,18.95
2017-11-28T02:12:52.286Z,19.00
2017-11-28T02:13:52.272Z,18.96
2017-11-28T02:14:52.262Z,18.96
2017-11-28T02:15:52.242Z,18.98
2017-11-28T02:16:52.228Z,19.02
2017-11-28T02:17:52.212Z,18.92
2017-11-28T02:18:52.197Z,18.96
2017-11-28T02:19:52.184Z,18.92
2017-11-28T02:20:52.171Z,18.99
2017-11-28T02:21:52.159Z,18.92
2017-11-28T02:22:52.139Z,18.89
2017-11-28T02:23:52.126Z,18.88
2017-11-28T02:24:52.119Z,18.92
2017-11-28T02:25:52.097Z,18.89
2017-11-28T02:26:52.083Z,18.83
2017-11-28T02:27:52.081Z,18.84
2017-11-28T02:28:52.052Z,18.92
2017-11-28T02:29:52.037Z,18.84
2017-11-28T02:30:52.022Z,18.86
2017-11-28T02:31:52.014Z,18.88
2017-11-28T02:32:51.993Z,18.89
2017-11-28T02:33:51.978Z,18.84
2017-11-28T02:34:51.965Z,18.80
2017-11-28T02:35:51.949Z,18.81
2017-11-28T02:36:51.934Z,18.86
2017-11-28T02:37:51.921Z,18.84
2017-11-28T02:38:51.986Z,18.81
2017-11-28T02:39:51.889Z,18.83
2017-11-28T02:40:51.876Z,18.83
2017-11-28T02:41:51.861Z,18.86
2017-11-28T02:42:51.846Z,18.86
2017-11-28T02:43:51.836Z,18.77
2017-11-28T02:44:51.814Z,18.81
2017-11-28T02:45:51.801Z,18.81
2017-11-28T02:46:51.794Z,18.84
2017-11-28T02:47:51.777Z,18.86
2017-11-28T02:48:51.756Z,18.77
2017-11-28T02:49:51.742Z,18.86
2017-11-28T02:50:51.728Z,18.78
2017-11-28T02:51:51.713Z,18.71
2017-11-28T02:52:51.698Z,18.80
2017-11-28T02:53:51.684Z,18.70
2017-11-28T02:54:51.694Z,18.77
2017-11-28T02:55:51.654Z,18.80
2017-11-28T02:56:51.639Z,18.71
2017-11-28T02:57:51.629Z,18.73
2017-11-28T02:58:51.609Z,18.73
2017-11-28T02:59:51.593Z,18.68
2017-11-28T03:00:51.579Z,18.70
2017-11-28T03:01:51.565Z,18.78
2017-11-28T03:02:51.549Z,18.62
2017-11-28T03:03:51.534Z,18.75
2017-11-28T03:04:51.520Z,18.73
2017-11-28T03:05:51.505Z,18.70
2017-11-28T03:06:51.489Z,18.63
2017-11-28T03:07:51.475Z,18.65
2017-11-28T03:08:51.461Z,18.68
2017-11-28T03:09:51.445Z,18.71
2017-11-28T03:10:51.430Z,18.63
2017-11-28T03:11:51.416Z,18.66
2017-11-28T03:12:51.400Z,18.65
2017-11-28T03:13:51.385Z,18.62
2017-11-28T03:14:51.369Z,18.66
2017-11-28T03:15:51.357Z,18.71
2017-11-28T03:16:51.342Z,18.66
2017-11-28T03:17:51.327Z,18.68
2017-11-28T03:18:51.311Z,18.65
2017-11-28T03:19:51.296Z,18.63
2017-11-28T03:20:51.286Z,18.63
2017-11-28T03:21:51.266Z,18.65
2017-11-28T03:22:51.250Z,18.62
2017-11-28T03:23:51.237Z,18.66
2017-11-28T03:24:51.222Z,18.63
2017-11-28T03:25:51.206Z,18.59
2017-11-28T03:26:51.192Z,18.60
2017-11-28T03:27:51.176Z,18.63
2017-11-28T03:28:51.162Z,18.58
2017-11-28T03:29:51.148Z,18.56
2017-11-28T03:30:51.142Z,18.66
2017-11-28T03:31:51.116Z,18.55
2017-11-28T03:32:51.103Z,18.62
2017-11-28T03:33:51.090Z,18.56
2017-11-28T03:34:51.072Z,18.58
2017-11-28T03:35:51.058Z,18.53
2017-11-28T03:36:51.043Z,18.56
2017-11-28T03:37:51.029Z,18.62
2017-11-28T03:38:51.017Z,18.62
2017-11-28T03:39:51.001Z,18.58
2017-11-28T03:40:50.983Z,18.56
2017-11-28T03:41:50.967Z,18.59
2017-11-28T03:42:50.952Z,18.56
2017-11-28T03:43:50.946Z,18.60
2017-11-28T03:44:50.924Z,18.63
2017-11-28T03:45:50.914Z,18.70
2017-11-28T03:46:50.894Z,18.70
2017-11-28T03:47:50.887Z,18.70
2017-11-28T03:48:50.867Z,18.74
2017-11-28T03:49:50.852Z,18.78
2017-11-28T03:50:50.836Z,18.84
2017-11-28T03:51:50.818Z,18.89
2017-11-28T03:52:50.808Z,18.88
2017-11-28T03:53:50.787Z,18.92
2017-11-28T03:54:50.772Z,18.90
2017-11-28T03:55:50.758Z,18.99
2017-11-28T03:56:50.745Z,18.95
2017-11-28T03:57:50.729Z,18.95
2017-11-28T03:58:50.713Z,18.98
2017-11-28T03:59:50.699Z,19.11
2017-11-28T04:00:50.684Z,19.08
2017-11-28T04:01:50.669Z,19.15
2017-11-28T04:02:50.652Z,19.22
2017-11-28T04:03:50.639Z,19.29
2017-11-28T04:04:50.624Z,19.33
2017-11-28T04:05:50.613Z,19.29
2017-11-28T04:06:50.593Z,19.41
2017-11-28T04:07:50.585Z,19.41
2017-11-28T04:08:50.565Z,19.40
2017-11-28T04:09:50.551Z,19.45
2017-11-28T04:10:50.535Z,19.45
2017-11-28T04:11:50.522Z,19.49
2017-11-28T04:12:50.507Z,19.41
2017-11-28T04:13:50.493Z,19.44
2017-11-28T04:14:50.478Z,19.51
2017-11-28T04:15:50.462Z,19.55
2017-11-28T04:16:50.449Z,19.51
2017-11-28T04:17:50.434Z,19.52
2017-11-28T04:18:50.418Z,19.55
2017-11-28T04:19:50.403Z,19.56
2017-11-28T04:20:50.390Z,19.54
2017-11-28T04:21:50.379Z,19.58
2017-11-28T04:22:50.361Z,19.59
2017-11-28T04:23:50.347Z,19.58
2017-11-28T04:24:50.338Z,19.55
2017-11-28T04:25:50.318Z,19.56
2017-11-28T04:26:50.301Z,19.67
2017-11-28T04:27:50.289Z,19.74
2017-11-28T04:28:50.274Z,19.71
2017-11-28T04:29:50.259Z,19.81
2017-11-28T04:30:50.245Z,19.58
2017-11-28T04:31:50.232Z,19.70
2017-11-28T04:32:50.216Z,19.76
2017-11-28T04:33:50.210Z,19.76
2017-11-28T04:34:50.187Z,19.74
2017-11-28T04:35:50.174Z,19.74
2017-11-28T04:36:50.158Z,19.69
2017-11-28T04:37:50.146Z,19.74
2017-11-28T04:38:50.130Z,19.62
2017-11-28T04:39:50.116Z,19.79
2017-11-28T04:40:50.102Z,19.62
2017-11-28T04:41:50.086Z,19.77
2017-11-28T04:42:50.073Z,19.71
2017-11-28T04:43:50.059Z,19.82
2017-11-28T04:44:50.045Z,19.74
2017-11-28T04:45:50.031Z,19.79
2017-11-28T04:46:50.016Z,19.89
2017-11-28T04:47:50.001Z,19.79
2017-11-28T04:48:49.987Z,19.84
2017-11-28T04:49:49.973Z,19.84
2017-11-28T04:50:49.959Z,19.69
2017-11-28T04:51:49.945Z,19.84
2017-11-28T04:52:49.931Z,19.82
2017-11-28T04:53:49.916Z,19.82
2017-11-28T04:54:49.901Z,19.81
2017-11-28T04:55:49.887Z,19.82
2017-11-28T04:56:49.874Z,19.77
2017-11-28T04:57:49.865Z,19.81
2017-11-28T04:58:49.846Z,19.86
2017-11-28T04:59:49.832Z,19.77
2017-11-28T05:00:49.816Z,19.81
2017-11-28T05:01:49.802Z,19.81
2017-11-28T05:02:49.788Z,19.94
2017-11-28T05:03:49.783Z,19.81
2017-11-28T05:04:49.759Z,19.81
2017-11-28T05:05:49.746Z,19.91
2017-11-28T05:06:49.732Z,19.91
2017-11-28T05:07:49.718Z,19.81
2017-11-28T05:08:49.703Z,19.95
2017-11-28T05:09:49.696Z,19.92
2017-11-28T05:10:49.681Z,19.95
2017-11-28T05:11:49.662Z,19.84
2017-11-28T05:12:49.650Z,19.84
2017-11-28T05:13:49.634Z,19.89
2017-11-28T05:14:49.620Z,19.92
2017-11-28T05:15:49.608Z,19.94
2017-11-28T05:16:49.591Z,19.94
2017-11-28T05:17:49.578Z,19.95
2017-11-28T05:18:49.564Z,19.86
2017-11-28T05:19:49.549Z,19.99
2017-11-28T05:20:49.536Z,19.94
2017-11-28T05:21:49.526Z,19.95
2017-11-28T05:22:49.506Z,19.88
2017-11-28T05:23:49.493Z,19.92
2017-11-28T05:24:49.478Z,19.95
2017-11-28T05:25:49.464Z,20.00
2017-11-28T05:26:49.449Z,19.95
2017-11-28T05:27:49.437Z,19.94
2017-11-28T05:28:49.422Z,19.94
2017-11-28T05:29:49.409Z,19.92
2017-11-28T05:30:49.393Z,19.95
2017-11-28T05:31:49.380Z,19.95
2017-11-28T05:32:49.366Z,19.96
2017-11-28T05:33:49.367Z,20.09
2017-11-28T05:34:49.335Z,20.06
2017-11-28T05:35:49.323Z,20.03
2017-11-28T05:36:49.308Z,20.02
2017-11-28T05:37:49.298Z,20.04
2017-11-28T05:38:49.282Z,20.09
2017-11-28T05:39:49.266Z,20.04
2017-11-28T05:40:49.253Z,20.04
2017-11-28T05:41:49.246Z,20.00
2017-11-28T05:42:49.224Z,19.99
2017-11-28T05:43:49.211Z,20.00
2017-11-28T05:44:49.197Z,20.02
2017-11-28T05:45:49.182Z,20.11
2017-11-28T05:46:49.168Z,20.03
2017-11-28T05:47:49.153Z,20.04
2017-11-28T05:48:49.149Z,20.02
2017-11-28T05:49:49.128Z,20.06
2017-11-28T05:50:49.115Z,20.07
2017-11-28T05:51:49.098Z,20.11
2017-11-28T05:52:49.085Z,20.04
2017-11-28T05:53:49.069Z,19.99
2017-11-28T05:54:49.054Z,20.09
2017-11-28T05:55:49.041Z,20.02
2017-11-28T05:56:49.027Z,20.00
2017-11-28T05:57:49.014Z,20.03
2017-11-28T05:58:49.002Z,19.99
2017-11-28T05:59:48.984Z,20.10
2017-11-28T06:00:48.973Z,20.02
2017-11-28T06:01:48.957Z,20.07
2017-11-28T06:02:48.942Z,20.09
2017-11-28T06:03:48.939Z,20.10
2017-11-28T06:04:48.915Z,20.06
2017-11-28T06:05:48.902Z,20.06
2017-11-28T06:06:48.893Z,20.06
2017-11-28T06:07:48.874Z,20.10
2017-11-28T06:08:48.859Z,20.13
2017-11-28T06:09:48.848Z,20.10
2017-11-28T06:10:48.830Z,20.09
2017-11-28T06:11:48.821Z,20.18
2017-11-28T06:12:48.803Z,20.13
2017-11-28T06:13:48.790Z,20.18
2017-11-28T06:14:48.776Z,20.13
2017-11-28T06:15:48.761Z,20.21
2017-11-28T06:16:48.748Z,20.16
2017-11-28T06:17:48.734Z,20.09
2017-11-28T06:18:48.726Z,20.14
2017-11-28T06:19:48.708Z,20.11
2017-11-28T06:20:48.691Z,20.11
2017-11-28T06:21:48.678Z,20.06
2017-11-28T06:22:48.667Z,20.16
2017-11-28T06:23:48.649Z,20.10
2017-11-28T06:24:48.636Z,20.14
2017-11-28T06:25:48.624Z,20.03
2017-11-28T06:26:48.606Z,20.06
2017-11-28T06:27:48.595Z,20.07
2017-11-28T06:28:48.583Z,20.11
2017-11-28T06:29:48.565Z,20.09
2017-11-28T06:30:48.552Z,20.14
2017-11-28T06:31:48.539Z,20.10
2017-11-28T06:32:48.523Z,20.09
2017-11-28T06:33:48.510Z,20.07
2017-11-28T06:34:48.495Z,20.03
2017-11-28T06:35:48.481Z,19.99
2017-11-28T06:36:48.467Z,20.04
2017-11-28T06:37:48.454Z,20.04
2017-11-28T06:38:48.443Z,20.13
2017-11-28T06:39:48.436Z,20.09
2017-11-28T06:40:48.412Z,20.13
2017-11-28T06:41:48.399Z,20.03
2017-11-28T06:42:48.386Z,20.13
2017-11-28T06:43:48.373Z,20.00
2017-11-28T06:44:48.357Z,20.03
2017-11-28T06:45:48.345Z,20.10
2017-11-28T06:46:48.330Z,19.99
2017-11-28T06:47:48.314Z,20.04
2017-11-28T06:48:48.302Z,20.06
2017-11-28T06:49:48.288Z,20.04
2017-11-28T06:50:48.272Z,19.96
2017-11-28T06:51:48.259Z,19.96
2017-11-28T06:52:48.245Z,19.96
2017-11-28T06:53:48.232Z,19.99
2017-11-28T06:54:48.217Z,19.99
2017-11-28T06:55:48.204Z,19.96
2017-11-28T06:56:48.190Z,19.95
2017-11-28T06:57:48.176Z,19.95
2017-11-28T06:58:48.162Z,19.94
2017-11-28T06:59:48.147Z,19.88
2017-11-28T07:00:48.134Z,19.89
2017-11-28T07:01:48.120Z,19.94
2017-11-28T07:02:48.105Z,19.89
2017-11-28T07:03:48.096Z,19.89
2017-11-28T07:04:48.078Z,19.96
2017-11-28T07:05:48.065Z,19.96
2017-11-28T07:06:48.050Z,19.95
2017-11-28T07:07:48.035Z,19.95
2017-11-28T07:08:48.021Z,19.99
2017-11-28T07:09:48.008Z,19.95
2017-11-28T07:10:47.994Z,19.89
2017-11-28T07:11:47.979Z,19.94
2017-11-28T07:12:47.965Z,19.95
2017-11-28T07:13:47.955Z,19.91
2017-11-28T07:14:47.953Z,19.89
2017-11-28T07:15:47.923Z,19.92
2017-11-28T07:16:47.910Z,19.94
2017-11-28T07:17:47.897Z,19.92
2017-11-28T07:18:47.882Z,19.94
2017-11-28T07:19:47.868Z,19.92
2017-11-28T07:20:47.853Z,19.84
2017-11-28T07:21:47.839Z,19.95
2017-11-28T07:22:47.824Z,19.91
2017-11-28T07:23:47.812Z,19.92
2017-11-28T07:24:47.797Z,19.95
2017-11-28T07:25:47.784Z,19.92
2017-11-28T07:26:47.770Z,19.91
2017-11-28T07:27:47.755Z,19.92
2017-11-28T07:28:47.742Z,20.00
2017-11-28T07:29:47.728Z,19.94
2017-11-28T07:30:47.718Z,19.91
2017-11-28T07:31:47.699Z,19.95
2017-11-28T07:32:47.685Z,19.89
2017-11-28T07:33:47.673Z,19.99
2017-11-28T07:34:47.656Z,20.02
2017-11-28T07:35:47.643Z,19.89
2017-11-28T07:36:47.630Z,19.91
2017-11-28T07:37:47.615Z,19.85
2017-11-28T07:38:47.599Z,19.91
2017-11-28T07:39:47.587Z,19.92
2017-11-28T07:40:47.574Z,19.88
2017-11-28T07:41:47.559Z,20.04
2017-11-28T07:42:47.544Z,19.99
2017-11-28T07:43:47.531Z,20.00
2017-11-28T07:44:47.529Z,20.07
2017-11-28T07:45:47.507Z,20.09
2017-11-28T07:46:47.495Z,20.13
2017-11-28T07:47:47.475Z,20.13
2017-11-28T07:48:47.460Z,20.04
2017-11-28T07:49:47.447Z,20.19
2017-11-28T07:50:47.433Z,20.24
2017-11-28T07:51:47.418Z,20.11
2017-11-28T07:52:47.405Z,20.19
2017-11-28T07:53:47.391Z,20.14
2017-11-28T07:54:47.377Z,20.24
2017-11-28T07:55:47.363Z,20.18
2017-11-28T07:56:47.352Z,20.26
2017-11-28T07:57:47.353Z,20.29
2017-11-28T07:58:47.321Z,20.31
2017-11-28T07:59:47.308Z,20.31
2017-11-28T08:00:47.294Z,20.39
2017-11-28T08:01:47.279Z,20.39
2017-11-28T08:02:47.265Z,20.40
2017-11-28T08:03:47.251Z,20.41
2017-11-28T08:04:47.239Z,20.52
2017-11-28T08:05:47.224Z,20.58
2017-11-28T08:06:47.213Z,20.51
2017-11-28T08:07:47.196Z,20.51
2017-11-28T08:08:47.182Z,20.59
2017-11-28T08:09:47.174Z,20.66
2017-11-28T08:10:47.155Z,20.69
2017-11-28T08:11:47.141Z,20.75
2017-11-28T08:12:47.128Z,20.78
2017-11-28T08:13:47.120Z,20.85
2017-11-28T08:14:47.124Z,20.87
2017-11-28T08:15:47.087Z,20.88
2017-11-28T08:16:47.073Z,20.84
2017-11-28T08:17:47.058Z,20.88
2017-11-28T08:18:47.044Z,20.84
2017-11-28T08:19:47.031Z,20.88
2017-11-28T08:20:47.025Z,20.96
2017-11-28T08:21:47.005Z,20.99
2017-11-28T08:22:46.990Z,21.09
2017-11-28T08:23:46.978Z,21.02
2017-11-28T08:24:46.968Z,20.99
2017-11-28T08:25:46.952Z,21.02
2017-11-28T08:26:46.936Z,21.09
2017-11-28T08:27:46.925Z,21.14
2017-11-28T08:28:46.909Z,21.07
2017-11-28T08:29:46.895Z,21.11
2017-11-28T08:30:46.885Z,21.27
2017-11-28T08:31:46.869Z,21.30
2017-11-28T08:32:46.856Z,21.33
2017-11-28T08:33:46.842Z,21.27
2017-11-28T08:34:46.828Z,21.33
2017-11-28T08:35:46.816Z,21.30
2017-11-28T08:36:46.801Z,21.32
2017-11-28T08:37:46.788Z,21.37
2017-11-28T08:38:46.774Z,21.46
2017-11-28T08:39:46.761Z,21.43
2017-11-28T08:40:46.747Z,21.45
2017-11-28T08:41:46.734Z,21.57
2017-11-28T08:42:46.720Z,21.57
2017-11-28T08:43:46.722Z,21.69
2017-11-28T08:44:46.696Z,21.66
2017-11-28T08:45:46.681Z,21.67
2017-11-28T08:46:46.668Z,21.60
2017-11-28T08:47:46.666Z,21.57
2017-11-28T08:48:46.643Z,21.58
2017-11-28T08:49:46.629Z,21.55
2017-11-28T08:50:46.614Z,21.50
2017-11-28T08:51:46.602Z,21.43
2017-11-28T08:52:46.592Z,21.45
2017-11-28T08:53:46.576Z,21.45
2017-11-28T08:54:46.563Z,21.60
2017-11-28T08:55:46.549Z,21.51
2017-11-28T08:56:46.537Z,21.51
2017-11-28T08:57:46.523Z,21.46
2017-11-28T08:58:46.510Z,21.58
2017-11-28T08:59:46.496Z,21.54
2017-11-28T09:00:46.484Z,21.66
2017-11-28T09:01:46.471Z,21.73
2017-11-28T09:02:46.456Z,21.77
2017-11-28T09:03:46.444Z,21.80
2017-11-28T09:04:46.432Z,21.91
2017-11-28T09:05:46.418Z,21.95
2017-11-28T09:06:46.404Z,21.93
2017-11-28T09:07:46.394Z,22.00
2017-11-28T09:08:46.378Z,22.10
2017-11-28T09:09:46.365Z,22.10
2017-11-28T09:10:46.353Z,22.15
2017-11-28T09:11:46.340Z,22.14
2017-11-28T09:12:46.326Z,22.11
2017-11-28T09:13:46.314Z,22.15
2017-11-28T09:14:46.299Z,22.15
2017-11-28T09:15:46.289Z,22.00
2017-11-28T09:16:46.274Z,22.07
2017-11-28T09:17:46.262Z,21.98
2017-11-28T09:18:46.248Z,22.00
2017-11-28T09:19:46.236Z,21.93
2017-11-28T09:20:46.224Z,21.96
2017-11-28T09:21:46.211Z,21.98
2017-11-28T09:22:46.196Z,21.89
2017-11-28T09:23:46.183Z,21.85
2017-11-28T09:24:46.172Z,21.83
2017-11-28T09:25:46.159Z,21.92
2017-11-28T09:26:46.145Z,21.92
2017-11-28T09:27:46.132Z,21.75
2017-11-28T09:28:46.119Z,21.79
2017-11-28T09:29:46.107Z,21.83
2017-11-28T09:30:46.092Z,21.82
2017-11-28T09:31:46.081Z,21.77
2017-11-28T09:32:46.070Z,21.76
2017-11-28T09:33:46.055Z,21.72
2017-11-28T09:34:46.041Z,21.79
2017-11-28T09:35:46.028Z,21.73
2017-11-28T09:36:46.015Z,21.69
2017-11-28T09:37:46.002Z,21.66
2017-11-28T09:38:45.988Z,21.66
2017-11-28T09:39:45.976Z,21.64
2017-11-28T09:40:45.968Z,21.54
2017-11-28T09:41:45.951Z,21.48
2017-11-28T09:42:45.937Z,21.42
2017-11-28T09:43:45.925Z,21.48
2017-11-28T09:44:45.911Z,21.46
2017-11-28T09:45:45.898Z,21.50
2017-11-28T09:46:45.884Z,21.43
2017-11-28T09:47:45.873Z,21.36
2017-11-28T09:48:45.859Z,21.33
2017-11-28T09:49:45.846Z,21.33
2017-11-28T09:50:45.832Z,21.39
2017-11-28T09:51:45.820Z,21.37
2017-11-28T09:52:45.813Z,21.50
2017-11-28T09:53:45.793Z,21.55
2017-11-28T09:54:45.780Z,21.67
2017-11-28T09:55:45.770Z,21.73
2017-11-28T09:56:45.754Z,21.85
2017-11-28T09:57:45.741Z,21.95
2017-11-28T09:58:45.726Z,22.07
2017-11-28T09:59:45.715Z,22.10
2017-11-28T10:00:45.702Z,22.10
2017-11-28T10:01:45.690Z,22.20
2017-11-28T10:02:45.676Z,22.29
2017-11-28T10:03:45.662Z,22.23
2017-11-28T10:04:45.649Z,22.25
2017-11-28T10:05:45.636Z,22.30
2017-11-28T10:06:45.622Z,22.29
2017-11-28T10:07:45.610Z,22.35
2017-11-28T10:08:45.602Z,22.41
2017-11-28T10:09:45.585Z,22.53
2017-11-28T10:10:45.571Z,22.51
2017-11-28T10:11:45.560Z,22.50
2017-11-28T10:12:45.547Z,22.48
2017-11-28T10:13:45.534Z,22.55
2017-11-28T10:14:45.522Z,22.62
2017-11-28T10:15:45.513Z,22.68
2017-11-28T10:16:45.496Z,22.66
2017-11-28T10:17:45.484Z,22.80
2017-11-28T10:18:45.470Z,22.78
2017-11-28T10:19:45.457Z,22.78
2017-11-28T10:20:45.446Z,22.76
2017-11-28T10:21:45.435Z,22.72
2017-11-28T10:22:45.420Z,22.70
2017-11-28T10:23:45.409Z,22.80
2017-11-28T10:24:45.400Z,22.78
2017-11-28T10:25:45.385Z,22.68
2017-11-28T10:26:45.371Z,22.68
2017-11-28T10:27:45.362Z,22.65
2017-11-28T10:28:45.355Z,22.63
2017-11-28T10:29:45.336Z,22.55
2017-11-28T10:30:45.322Z,22.50
2017-11-28T10:31:45.311Z,22.48
2017-11-28T10:32:45.297Z,22.45
2017-11-28T10:33:45.285Z,22.54
2017-11-28T10:34:45.281Z,22.60
2017-11-28T10:35:45.259Z,22.66
2017-11-28T10:36:45.248Z,22.65
2017-11-28T10:37:45.235Z,22.65
2017-11-28T10:38:45.223Z,22.60
2017-11-28T10:39:45.211Z,22.76
2017-11-28T10:40:45.198Z,22.88
2017-11-28T10:41:45.186Z,22.83
2017-11-28T10:42:45.171Z,22.87
2017-11-28T10:43:45.160Z,22.94
2017-11-28T10:44:45.148Z,23.02
2017-11-28T10:45:45.137Z,23.08
2017-11-28T10:46:45.122Z,23.13
2017-11-28T10:47:45.111Z,23.18
2017-11-28T10:48:45.100Z,23.23
2017-11-28T10:49:45.087Z,23.13
2017-11-28T10:50:45.075Z,23.21
2017-11-28T10:51:45.062Z,23.24
2017-11-28T10:52:45.050Z,23.32
2017-11-28T10:53:45.039Z,23.34
2017-11-28T10:54:45.025Z,23.34
2017-11-28T10:55:45.013Z,23.39
2017-11-28T10:56:45.004Z,23.44
2017-11-28T10:57:44.990Z,23.43
2017-11-28T10:58:44.977Z,23.55
2017-11-28T10:59:44.966Z,23.66
2017-11-28T11:00:44.953Z,23.59
2017-11-28T11:01:44.945Z,23.66
2017-11-28T11:02:44.931Z,23.59
2017-11-28T11:03:44.918Z,23.78
2017-11-28T11:04:44.905Z,23.81
2017-11-28T11:05:44.895Z,23.80
2017-11-28T11:06:44.884Z,23.78
2017-11-28T11:07:44.872Z,23.73
2017-11-28T11:08:44.859Z,23.73
2017-11-28T11:09:44.849Z,23.69
2017-11-28T11:10:44.842Z,23.78
2017-11-28T11:11:44.824Z,23.78
2017-11-28T11:12:44.813Z,23.78
2017-11-28T11:13:44.803Z,23.83
2017-11-28T11:14:44.789Z,23.91
2017-11-28T11:15:44.777Z,23.86
2017-11-28T11:16:44.768Z,23.98
2017-11-28T11:17:44.755Z,23.88
2017-11-28T11:18:44.745Z,23.76
2017-11-28T11:19:44.732Z,23.84
2017-11-28T11:20:44.719Z,23.68
2017-11-28T11:21:44.713Z,23.68
2017-11-28T11:22:44.696Z,23.68
2017-11-28T11:23:44.684Z,23.63
2017-11-28T11:24:44.675Z,23.80
2017-11-28T11:25:44.663Z,23.80
2017-11-28T11:26:44.649Z,23.84
2017-11-28T11:27:44.644Z,23.86
2017-11-28T11:28:44.633Z,23.96
2017-11-28T11:29:44.625Z,24.05
2017-11-28T11:30:44.604Z,24.14
2017-11-28T11:31:44.596Z,24.11
2017-11-28T11:32:44.581Z,24.06
2017-11-28T11:33:44.570Z,24.16
2017-11-28T11:34:44.557Z,24.18
2017-11-28T11:35:44.546Z,24.18
2017-11-28T11:36:44.535Z,24.21
2017-11-28T11:37:44.524Z,24.24
2017-11-28T11:38:44.513Z,24.26
2017-11-28T11:39:44.500Z,24.36
2017-11-28T11:40:44.496Z,24.42
2017-11-28T11:41:44.479Z,24.42
2017-11-28T11:42:44.471Z,24.45
2017-11-28T11:43:44.456Z,24.45
2017-11-28T11:44:44.444Z,24.40
2017-11-28T11:45:44.434Z,24.38
2017-11-28T11:46:44.423Z,24.43
2017-11-28T11:47:44.411Z,24.36
2017-11-28T11:48:44.401Z,24.33
2017-11-28T11:49:44.390Z,24.38
2017-11-28T11:50:44.378Z,24.38
2017-11-28T11:51:44.366Z,24.36
2017-11-28T11:52:44.356Z,24.38
2017-11-28T11:53:44.345Z,24.33
2017-11-28T11:54:44.333Z,24.42
2017-11-28T11:55:44.325Z,24.48
2017-11-28T11:56:44.312Z,24.43
2017-11-28T11:57:44.302Z,24.47
2017-11-28T11:58:44.288Z,24.47
2017-11-28T11:59:44.281Z,24.53
2017-11-28T12:00:44.269Z,24.43
2017-11-28T12:01:44.255Z,24.42
2017-11-28T12:02:44.245Z,24.47
2017-11-28T12:03:44.232Z,24.33
2017-11-28T12:04:44.222Z,24.35
2017-11-28T12:05:44.212Z,24.29
2017-11-28T12:06:44.202Z,24.32
2017-11-28T12:07:44.192Z,24.43
2017-11-28T12:08:44.179Z,24.29
2017-11-28T12:09:44.167Z,24.39
2017-11-28T12:10:44.155Z,24.28
2017-11-28T12:11:44.147Z,24.42
2017-11-28T12:12:44.135Z,24.33
2017-11-28T12:13:44.123Z,24.26
2017-11-28T12:14:44.113Z,24.33
2017-11-28T12:15:44.100Z,24.28
2017-11-28T12:16:44.090Z,24.23
2017-11-28T12:17:44.079Z,24.29
2017-11-28T12:18:44.066Z,24.24
2017-11-28T12:19:44.055Z,24.24
2017-11-28T12:20:44.046Z,24.17
2017-11-28T12:21:44.034Z,24.13
2017-11-28T12:22:44.023Z,24.14
2017-11-28T12:23:44.016Z,24.18
2017-11-28T12:24:44.000Z,24.17
2017-11-28T12:25:43.990Z,24.16
2017-11-28T12:26:43.985Z,24.21
2017-11-28T12:27:43.967Z,24.14
2017-11-28T12:28:43.955Z,24.14
2017-11-28T12:29:43.945Z,24.17
2017-11-28T12:30:43.934Z,24.20
2017-11-28T12:31:43.921Z,24.14
2017-11-28T12:32:43.919Z,24.16
2017-11-28T12:33:43.899Z,24.17
2017-11-28T12:34:43.894Z,24.14
2017-11-28T12:35:43.877Z,24.33
2017-11-28T12:36:43.864Z,24.28
2017-11-28T12:37:43.856Z,24.30
2017-11-28T12:38:43.843Z,24.35
2017-11-28T12:39:43.831Z,24.42
2017-11-28T12:40:43.821Z,24.39
2017-11-28T12:41:43.809Z,24.36
2017-11-28T12:42:43.798Z,24.38
2017-11-28T12:43:43.794Z,24.32
2017-11-28T12:44:43.776Z,24.26
2017-11-28T12:45:43.764Z,24.32
2017-11-28T12:46:43.754Z,24.23
2017-11-28T12:47:43.747Z,24.21
2017-11-28T12:48:43.733Z,24.20
2017-11-28T12:49:43.722Z,24.16
2017-11-28T12:50:43.709Z,24.11
2017-11-28T12:51:43.697Z,24.01
2017-11-28T12:52:43.687Z,23.88